createdAt,value
2017-12-27T08:18:23.178Z,2.40
2017-12-27T08:23:21.122Z,2.40
2017-12-27T08:25:49.812Z,2.30
2017-12-27T08:28:19.018Z,2.30
2017-12-27T08:30:47.714Z,2.20
2017-12-27T08:33:16.314Z,2.40
2017-12-27T08:38:14.797Z,2.50
2017-12-27T08:40:44.031Z,2.60
2017-12-27T08:43:12.515Z,2.60
2017-12-27T08:45:40.959Z,2.80
2017-12-27T08:48:09.646Z,2.80
2017-12-27T08:50:38.846Z,3.00
2017-12-27T08:53:08.149Z,3.10
2017-12-27T08:55:37.343Z,3.10
2017-12-27T08:58:06.542Z,3.10
2017-12-27T09:18:01.017Z,3.10
2017-12-27T09:20:29.434Z,3.10
2017-12-27T09:27:57.511Z,3.30
2017-12-27T09:30:25.930Z,3.30
2017-12-27T09:32:55.138Z,3.30
2017-12-27T09:35:23.562Z,3.30
2017-12-27T09:37:52.016Z,3.30
2017-12-27T09:40:20.560Z,3.30
2017-12-27T09:42:49.014Z,3.30
2017-12-27T09:45:17.658Z,3.30
2017-12-27T09:47:46.258Z,3.40
2017-12-27T09:50:14.706Z,3.40
2017-12-27T09:52:43.918Z,3.50
2017-12-27T09:55:12.358Z,3.40
2017-12-27T09:57:40.867Z,3.50
2017-12-27T10:00:10.070Z,3.60
2017-12-27T10:02:39.274Z,3.70
2017-12-27T10:05:08.496Z,3.80
2017-12-27T10:07:36.957Z,3.70
2017-12-27T10:10:06.218Z,3.70
2017-12-27T10:12:34.638Z,3.70
2017-12-27T10:15:03.838Z,3.80
2017-12-27T10:17:33.119Z,3.70
2017-12-27T10:20:01.558Z,3.70
2017-12-27T10:22:30.086Z,3.60
2017-12-27T10:24:59.326Z,3.60
2017-12-27T10:27:27.738Z,3.60
2017-12-27T10:29:56.044Z,3.60
2017-12-27T10:32:24.351Z,3.70
2017-12-27T10:34:52.582Z,3.70
2017-12-27T10:37:20.838Z,3.80
2017-12-27T10:39:49.264Z,3.80
2017-12-27T10:42:18.534Z,3.80
2017-12-27T10:44:46.766Z,3.70
2017-12-27T10:47:15.006Z,3.80
2017-12-27T10:49:43.239Z,3.80
2017-12-27T10:52:11.510Z,3.90
2017-12-27T10:54:39.755Z,4.00
2017-12-27T10:57:08.982Z,4.00
2017-12-27T10:59:37.209Z,3.90
2017-12-27T11:02:05.638Z,4.00
2017-12-27T11:04:34.093Z,4.10
2017-12-27T11:07:03.320Z,4.10
2017-12-27T11:09:31.775Z,4.10
2017-12-27T11:12:00.983Z,4.20
2017-12-27T11:14:30.414Z,4.30
2017-12-27T11:16:58.862Z,4.20
2017-12-27T11:19:28.045Z,4.50
2017-12-27T11:21:56.497Z,4.40
2017-12-27T11:24:25.067Z,4.50
2017-12-27T11:26:53.507Z,4.50
2017-12-27T11:29:22.834Z,4.70
2017-12-27T11:31:51.298Z,4.60
2017-12-27T11:34:20.480Z,4.90
2017-12-27T11:36:49.761Z,5.00
2017-12-27T11:39:18.193Z,5.00
2017-12-27T11:41:46.742Z,5.00
2017-12-27T11:44:15.206Z,5.00
2017-12-27T11:46:43.660Z,5.00
2017-12-27T11:49:12.191Z,5.10
2017-12-27T11:51:40.622Z,5.10
2017-12-27T11:54:09.196Z,5.00
2017-12-27T11:56:37.662Z,5.00
2017-12-27T11:59:06.852Z,5.00
2017-12-27T12:01:36.087Z,5.00
2017-12-27T12:04:04.517Z,5.00
2017-12-27T12:06:33.763Z,5.10
2017-12-27T12:09:02.180Z,5.10
2017-12-27T12:11:30.630Z,5.10
2017-12-27T12:13:59.099Z,5.10
2017-12-27T12:16:27.513Z,5.10
2017-12-27T12:18:55.954Z,5.10
2017-12-27T12:21:24.398Z,5.20
2017-12-27T12:23:53.004Z,5.30
2017-12-27T12:26:22.207Z,5.40
2017-12-27T12:28:51.397Z,5.50
2017-12-27T12:31:20.828Z,5.50
2017-12-27T12:33:49.397Z,5.50
2017-12-27T12:36:18.597Z,5.50
2017-12-27T12:38:47.989Z,5.50
2017-12-27T12:41:17.227Z,5.60
2017-12-27T12:43:45.642Z,5.50
2017-12-27T12:46:14.079Z,5.60
2017-12-27T12:48:42.501Z,5.60
2017-12-27T12:51:10.970Z,5.60
2017-12-27T12:53:39.889Z,5.60
2017-12-27T12:56:08.337Z,5.70
2017-12-27T12:58:37.722Z,5.60
2017-12-27T13:01:06.157Z,5.60
2017-12-27T13:03:34.586Z,5.50
2017-12-27T13:06:03.044Z,5.50
2017-12-27T13:08:32.260Z,5.40
2017-12-27T13:11:00.709Z,5.40
2017-12-27T13:13:28.963Z,5.40
2017-12-27T13:15:57.315Z,5.40
2017-12-27T13:18:25.797Z,5.40
2017-12-27T13:20:54.031Z,5.30
2017-12-27T13:23:22.463Z,5.30
2017-12-27T13:25:50.953Z,5.30
2017-12-27T13:28:19.191Z,5.20
2017-12-27T13:30:48.404Z,5.10
2017-12-27T13:33:16.995Z,5.00
2017-12-27T13:35:45.649Z,5.10
2017-12-27T13:38:14.656Z,5.10
2017-12-27T13:40:44.050Z,5.10
2017-12-27T13:43:13.122Z,5.00
2017-12-27T13:45:41.542Z,5.00
2017-12-27T13:48:10.738Z,4.90
2017-12-27T13:50:39.938Z,4.90
2017-12-27T13:53:09.271Z,4.90
2017-12-27T13:55:37.703Z,4.80
2017-12-27T13:58:06.234Z,4.80
2017-12-27T14:00:34.678Z,4.90
2017-12-27T14:03:03.860Z,4.90
2017-12-27T14:05:32.314Z,4.90
2017-12-27T14:08:00.985Z,4.80
2017-12-27T14:10:29.560Z,4.80
2017-12-27T14:12:57.996Z,4.90
2017-12-27T14:15:26.631Z,4.80
2017-12-27T14:17:55.087Z,4.80
2017-12-27T14:20:24.294Z,4.70
2017-12-27T14:22:53.646Z,4.70
2017-12-27T14:25:22.160Z,4.70
2017-12-27T14:27:51.386Z,4.60
2017-12-27T14:30:19.813Z,4.60
2017-12-27T14:32:48.242Z,4.70
2017-12-27T14:35:16.704Z,4.70
2017-12-27T14:37:45.339Z,4.70
2017-12-27T14:40:13.813Z,4.60
2017-12-27T14:42:42.242Z,4.60
2017-12-27T14:45:10.665Z,4.60
2017-12-27T14:47:39.101Z,4.60
2017-12-27T14:50:07.547Z,4.70
2017-12-27T14:52:35.971Z,4.70
2017-12-27T14:55:04.205Z,4.60
2017-12-27T14:57:32.655Z,4.60
2017-12-27T15:00:01.849Z,4.60
2017-12-27T15:02:31.114Z,4.60
2017-12-27T15:04:59.547Z,4.50
2017-12-27T15:07:27.966Z,4.60
2017-12-27T15:09:56.598Z,4.50
2017-12-27T15:12:25.810Z,4.50
2017-12-27T15:14:54.246Z,4.50
2017-12-27T15:17:22.809Z,4.50
2017-12-27T15:19:51.234Z,4.50
2017-12-27T15:22:20.454Z,4.40
2017-12-27T15:24:48.883Z,4.40
2017-12-27T15:27:17.536Z,4.40
2017-12-27T15:29:45.966Z,4.30
2017-12-27T15:32:14.447Z,4.30
2017-12-27T15:34:42.868Z,4.30
2017-12-27T15:37:11.436Z,4.30
2017-12-27T15:39:40.626Z,4.30
2017-12-27T15:42:09.822Z,4.20
2017-12-27T15:44:38.253Z,4.20
2017-12-27T15:47:06.745Z,4.30
2017-12-27T15:49:35.265Z,4.30
2017-12-27T15:52:03.709Z,4.40
2017-12-27T15:54:32.170Z,4.40
2017-12-27T15:57:00.635Z,4.40
2017-12-27T15:59:30.017Z,4.30
2017-12-27T16:01:58.550Z,4.30
2017-12-27T16:04:26.786Z,4.30
2017-12-27T16:06:56.030Z,4.30
2017-12-27T16:09:24.450Z,4.20
2017-12-27T16:11:52.915Z,4.30
2017-12-27T16:14:22.669Z,4.30
2017-12-27T16:16:51.866Z,4.20
2017-12-27T16:19:21.070Z,4.20
2017-12-27T16:21:50.272Z,4.20
2017-12-27T16:24:18.807Z,4.10
2017-12-27T16:26:47.275Z,4.10
2017-12-27T16:29:16.314Z,4.10
2017-12-27T16:31:44.561Z,4.20
2017-12-27T16:34:12.977Z,4.20
2017-12-27T16:36:42.183Z,4.20
2017-12-27T16:39:11.559Z,4.30
2017-12-27T16:41:39.995Z,4.30
2017-12-27T16:44:08.435Z,4.30
2017-12-27T16:46:36.893Z,4.20
2017-12-27T16:49:05.522Z,4.20
2017-12-27T16:51:34.874Z,4.20
2017-12-27T16:54:03.390Z,4.20
2017-12-27T16:56:32.589Z,4.20
2017-12-27T16:59:01.239Z,4.20
2017-12-27T17:01:29.657Z,4.20
2017-12-27T17:03:58.101Z,4.20
2017-12-27T17:06:26.546Z,4.10
2017-12-27T17:08:55.131Z,4.20
2017-12-27T17:11:24.326Z,4.10
2017-12-27T17:13:53.654Z,4.00
2017-12-27T17:16:22.145Z,4.00
2017-12-27T17:18:50.790Z,4.00
2017-12-27T17:21:19.983Z,4.00
2017-12-27T17:23:49.214Z,4.00
2017-12-27T17:26:17.778Z,3.90
2017-12-27T17:28:46.986Z,3.80
2017-12-27T17:31:15.413Z,3.80
2017-12-27T17:33:43.849Z,3.80
2017-12-27T17:36:13.023Z,3.70
2017-12-27T17:38:41.461Z,3.70
2017-12-27T17:41:10.032Z,3.70
2017-12-27T17:43:38.471Z,3.70
2017-12-27T17:46:07.746Z,3.80
2017-12-27T17:48:36.174Z,3.70
2017-12-27T17:51:05.374Z,3.70
2017-12-27T17:53:34.574Z,3.80
2017-12-27T17:56:03.839Z,3.80
2017-12-27T17:58:32.270Z,3.80
2017-12-27T18:01:00.731Z,3.90
2017-12-27T18:03:29.941Z,3.90
2017-12-27T18:05:58.397Z,3.90
2017-12-27T18:08:26.840Z,3.80
2017-12-27T18:10:55.266Z,3.80
2017-12-27T18:13:24.482Z,3.90
2017-12-27T18:15:52.935Z,3.80
2017-12-27T18:18:21.377Z,3.90
2017-12-27T18:20:49.971Z,3.90
2017-12-27T18:23:18.445Z,3.90
2017-12-27T18:25:46.885Z,3.90
2017-12-27T18:28:16.090Z,3.80
2017-12-27T18:30:45.334Z,3.70
2017-12-27T18:33:14.702Z,3.80
2017-12-27T18:35:43.131Z,3.70
2017-12-27T18:38:11.575Z,3.70
2017-12-27T18:40:40.003Z,3.70
2017-12-27T18:43:08.455Z,3.60
2017-12-27T18:45:36.885Z,3.60
2017-12-27T18:48:05.478Z,3.50
2017-12-27T18:50:34.530Z,3.40
2017-12-27T18:53:02.958Z,3.30
2017-12-27T18:55:32.178Z,3.20
2017-12-27T18:58:00.514Z,3.10
2017-12-27T19:00:28.773Z,3.20
2017-12-27T19:02:57.017Z,3.20
2017-12-27T19:05:25.483Z,3.20
2017-12-27T19:07:54.873Z,3.10
2017-12-27T19:10:23.890Z,3.30
2017-12-27T19:12:52.308Z,3.20
2017-12-27T19:15:20.746Z,3.30
2017-12-27T19:17:49.942Z,3.20
2017-12-27T19:20:19.176Z,3.20
2017-12-27T19:22:47.421Z,3.20
2017-12-27T19:25:15.852Z,3.30
2017-12-27T19:27:44.326Z,3.30
2017-12-27T19:30:12.766Z,3.40
2017-12-27T19:32:42.001Z,3.60
2017-12-27T19:35:10.475Z,3.60
2017-12-27T19:37:38.917Z,3.80
2017-12-27T19:40:08.121Z,3.90
2017-12-27T19:42:37.347Z,4.00
2017-12-27T19:45:05.784Z,3.90
2017-12-27T19:47:34.208Z,3.90
2017-12-27T19:50:02.636Z,4.00
2017-12-27T19:52:31.092Z,4.10
2017-12-27T19:54:59.530Z,4.10
2017-12-27T19:57:28.752Z,4.10
2017-12-27T19:59:57.167Z,4.00
2017-12-27T20:02:25.606Z,4.10
2017-12-27T20:04:54.034Z,4.00
2017-12-27T20:07:22.496Z,4.10
2017-12-27T20:09:50.983Z,4.10
2017-12-27T20:12:20.338Z,3.90
2017-12-27T20:14:49.585Z,4.10
2017-12-27T20:17:18.041Z,4.10
2017-12-27T20:19:46.475Z,4.00
2017-12-27T20:22:14.918Z,4.10
2017-12-27T20:24:43.361Z,4.10
2017-12-27T20:27:12.603Z,4.10
2017-12-27T20:29:41.090Z,4.10
2017-12-27T20:32:09.548Z,4.00
2017-12-27T20:34:37.963Z,4.00
2017-12-27T20:37:06.392Z,4.00
2017-12-27T20:39:35.574Z,4.00
2017-12-27T20:42:04.014Z,4.00
2017-12-27T20:44:32.453Z,4.00
2017-12-27T20:47:01.686Z,3.90
2017-12-27T20:49:30.157Z,3.80
2017-12-27T20:51:58.611Z,3.90
2017-12-27T20:54:27.828Z,3.90
2017-12-27T20:56:56.247Z,3.80
2017-12-27T20:59:24.710Z,3.90
2017-12-27T21:01:53.323Z,3.90
2017-12-27T21:04:21.781Z,3.80
2017-12-27T21:06:50.227Z,3.90
2017-12-27T21:09:19.436Z,4.10
2017-12-27T21:11:48.657Z,4.00
2017-12-27T21:14:17.136Z,4.00
2017-12-27T21:16:45.731Z,4.00
2017-12-27T21:19:14.318Z,4.00
2017-12-27T21:21:42.751Z,4.00
2017-12-27T21:24:11.611Z,4.00
2017-12-27T21:26:40.063Z,4.00
2017-12-27T21:29:08.493Z,4.10
2017-12-27T21:31:36.942Z,4.10
2017-12-27T21:34:05.390Z,4.00
2017-12-27T21:36:33.832Z,4.00
2017-12-27T21:39:02.304Z,4.00
2017-12-27T21:41:30.725Z,4.00
2017-12-27T21:44:00.054Z,4.00
2017-12-27T21:46:28.501Z,4.00
2017-12-27T21:49:03.330Z,4.00
2017-12-27T21:51:31.886Z,4.00
2017-12-27T21:54:00.342Z,3.90
2017-12-27T21:56:28.828Z,3.90
2017-12-27T21:59:02.826Z,3.90
2017-12-27T22:01:36.660Z,3.90
2017-12-27T22:04:05.120Z,3.80
2017-12-27T22:06:33.583Z,3.90
2017-12-27T22:09:02.027Z,3.80
2017-12-27T22:11:30.498Z,3.80
2017-12-27T22:13:58.596Z,3.80
2017-12-27T22:16:27.801Z,3.70
2017-12-27T22:18:56.992Z,3.60
2017-12-27T22:21:25.457Z,3.60
2017-12-27T22:23:53.933Z,3.60
2017-12-27T22:26:22.418Z,3.50
2017-12-27T22:28:50.853Z,3.60
2017-12-27T22:31:19.577Z,3.60
2017-12-27T22:36:17.725Z,3.50
2017-12-27T22:38:46.167Z,3.50
2017-12-27T22:41:14.616Z,3.40
2017-12-27T22:43:43.172Z,3.20
2017-12-27T22:46:11.618Z,3.20
2017-12-27T22:48:40.093Z,3.20
2017-12-27T22:51:08.546Z,3.20
2017-12-27T22:53:37.291Z,3.10
2017-12-27T22:56:06.501Z,2.90
2017-12-27T22:58:35.688Z,2.90
2017-12-27T23:01:04.899Z,2.80
2017-12-27T23:03:33.594Z,2.80
2017-12-27T23:06:02.855Z,2.80
2017-12-27T23:08:32.206Z,2.80
2017-12-27T23:11:00.634Z,2.70
2017-12-27T23:13:29.087Z,2.70
2017-12-27T23:15:57.617Z,2.80
2017-12-27T23:18:26.062Z,2.70
2017-12-27T23:20:54.635Z,2.70
2017-12-27T23:23:23.111Z,2.70
2017-12-27T23:25:51.665Z,2.70
2017-12-27T23:28:20.862Z,2.70
2017-12-27T23:30:50.061Z,2.70
2017-12-27T23:33:19.277Z,2.80
2017-12-27T23:35:47.741Z,2.70
2017-12-27T23:38:16.941Z,2.70
2017-12-27T23:40:46.151Z,2.60
2017-12-27T23:43:14.838Z,2.60
2017-12-27T23:45:44.087Z,2.70
2017-12-27T23:48:12.858Z,2.60
2017-12-27T23:50:42.338Z,2.60
2017-12-27T23:53:10.786Z,2.50
2017-12-27T23:55:39.238Z,2.50
2017-12-27T23:58:08.114Z,2.40
